Time;durP1;ratioP1;P1;durP2;ratioP2;P2;SDS_P1;SDS_P2;PMS_P1;PMS_P2;Temp;Humidity;BMP_temperature;BMP_pressure;BME280_temperature;BME280_humidity;BME280_pressure;Samples;Min_cycle;Max_cycle;Signal;HPM_P1;HPM_P2
2024/01/23 00:00:38;;;;;;;21.07;4.03;;;;;;;;;;5051250;28;20180;-72
2024/01/23 00:03:04;;;;;;;18.57;3.93;;;7.60;99.90;;;;;;5050917;28;20308;-73
2024/01/23 00:05:30;;;;;;;22.90;3.17;;;;;;;;;;5051056;28;20223;-74
2024/01/23 00:07:55;;;;;;;22.90;3.57;;;7.90;99.90;;;;;;5050939;28;20168;-73
2024/01/23 00:10:22;;;;;;;25.47;3.90;;;;;;;;;;5051106;28;20209;-72
2024/01/23 00:12:48;;;;;;;14.50;3.10;;;7.90;99.90;;;;;;5051132;28;20169;-72
2024/01/23 00:15:14;;;;;;;19.00;3.50;;;7.60;99.90;;;;;;5033222;28;20184;-72
2024/01/23 00:17:40;;;;;;;14.87;2.90;;;7.80;99.90;;;;;;5051166;28;20170;-72
2024/01/23 00:20:07;;;;;;;19.60;3.67;;;7.40;99.90;;;;;;5033214;28;20188;-72
2024/01/23 00:22:33;;;;;;;21.50;3.60;;;7.80;99.90;;;;;;5051138;28;20169;-72
2024/01/23 00:24:59;;;;;;;22.70;4.43;;;7.60;99.90;;;;;;5051654;28;20266;-72
2024/01/23 00:27:25;;;;;;;22.10;3.80;;;7.50;99.90;;;;;;5033673;28;20574;-71
2024/01/23 00:29:51;;;;;;;26.83;4.40;;;7.70;99.90;;;;;;5050960;28;20217;-71
2024/01/23 00:32:17;;;;;;;22.33;3.93;;;;;;;;;;5053683;28;20226;-72
2024/01/23 00:34:43;;;;;;;21.23;4.33;;;7.70;99.90;;;;;;5055300;28;20177;-72
2024/01/23 00:37:09;;;;;;;26.80;4.13;;;7.90;99.90;;;;;;5036542;28;20179;-72
2024/01/23 00:39:38;;;;;;;27.93;4.30;;;7.80;99.90;;;;;;5054803;28;20239;-72
2024/01/23 00:42:11;;;;;;;22.87;4.17;;;7.70;99.90;;;;;;5054975;28;20264;-72
2024/01/23 00:44:37;;;;;;;21.47;4.67;;;7.70;99.90;;;;;;5049158;28;20173;-71
2024/01/23 00:47:04;;;;;;;26.57;4.30;;;;;;;;;;5046726;28;20176;-71
2024/01/23 00:49:31;;;;;;;20.67;4.27;;;;;;;;;;5054621;28;20201;-72
2024/01/23 00:51:56;;;;;;;17.97;4.10;;;7.50;99.90;;;;;;5053206;28;20170;-72
2024/01/23 00:54:22;;;;;;;22.60;4.33;;;7.30;99.90;;;;;;5054543;28;20173;-72
2024/01/23 00:56:48;;;;;;;23.77;4.17;;;7.30;99.90;;;;;;5054644;28;20177;-72
2024/01/23 00:59:13;;;;;;;20.70;4.63;;;7.10;99.90;;;;;;5054662;28;20177;-72
2024/01/23 01:01:39;;;;;;;24.40;4.83;;;7.30;99.90;;;;;;5054537;28;20217;-72
2024/01/23 01:04:05;;;;;;;25.30;5.27;;;7.10;99.90;;;;;;5054235;28;20312;-72
2024/01/23 01:06:31;;;;;;;19.27;3.87;;;7.00;99.90;;;;;;5036616;28;20177;-73
2024/01/23 01:08:58;;;;;;;30.87;5.13;;;7.10;99.90;;;;;;5054128;28;20676;-72
2024/01/23 01:11:24;;;;;;;20.70;4.53;;;7.10;99.90;;;;;;5054333;28;20180;-72
2024/01/23 01:13:50;;;;;;;34.47;5.10;;;;;;;;;;5036313;28;20169;-72
2024/01/23 01:16:15;;;;;;;17.03;4.77;;;7.00;99.90;;;;;;5036675;28;20181;-72
2024/01/23 01:18:41;;;;;;;22.13;4.77;;;7.00;99.90;;;;;;5054166;28;20651;-72
2024/01/23 01:21:08;;;;;;;27.80;4.97;;;7.10;99.90;;;;;;5054075;28;20639;-72
2024/01/23 01:23:34;;;;;;;29.97;5.30;;;7.00;99.90;;;;;;5053957;28;20182;-72
2024/01/23 01:26:03;;;;;;;28.33;5.10;;;;;;;;;;5036119;28;20269;-72
2024/01/23 01:28:29;;;;;;;22.27;4.37;;;7.10;99.90;;;;;;5053941;28;20208;-72
2024/01/23 01:30:55;;;;;;;25.13;5.13;;;7.10;99.90;;;;;;5053956;28;20181;-72
2024/01/23 01:33:21;;;;;;;26.23;5.53;;;7.10;99.90;;;;;;5053795;28;20174;-72
2024/01/23 01:35:47;;;;;;;24.53;5.13;;;;;;;;;;5053619;28;20223;-72
2024/01/23 01:38:13;;;;;;;20.97;4.67;;;7.10;99.90;;;;;;5053631;28;20174;-72
2024/01/23 01:40:39;;;;;;;23.37;4.77;;;;;;;;;;5034926;28;20188;-72
2024/01/23 01:43:04;;;;;;;21.53;4.50;;;7.30;99.90;;;;;;5040726;28;20726;-72
2024/01/23 01:45:30;;;;;;;27.67;5.20;;;;;;;;;;5053287;28;20319;-72
2024/01/23 01:47:56;;;;;;;18.00;3.90;;;7.10;99.90;;;;;;5053326;28;20295;-72
2024/01/23 01:50:23;;;;;;;19.33;4.10;;;7.00;99.90;;;;;;5053251;28;20300;-72
2024/01/23 01:52:49;;;;;;;13.63;4.20;;;7.00;99.90;;;;;;5052900;28;20482;-72
2024/01/23 01:55:15;;;;;;;20.67;4.43;;;7.00;99.90;;;;;;5053086;28;20182;-72
2024/01/23 01:57:42;;;;;;;18.37;4.43;;;7.20;99.90;;;;;;5053388;28;20226;-72
2024/01/23 02:00:08;;;;;;;17.23;4.33;;;7.20;99.90;;;;;;5053394;28;20602;-71
2024/01/23 02:02:36;;;;;;;18.87;4.80;;;7.00;99.90;;;;;;5052960;28;20266;-72
2024/01/23 02:05:02;;;;;;;18.03;4.17;;;7.20;99.90;;;;;;5053370;28;20264;-73
2024/01/23 02:07:28;;;;;;;18.30;4.30;;;6.80;99.90;;;;;;5053336;28;20256;-72
2024/01/23 02:09:54;;;;;;;19.43;5.07;;;;;;;;;;5053407;28;20311;-73
2024/01/23 02:12:20;;;;;;;21.17;4.57;;;;;;;;;;5053310;28;20662;-71
2024/01/23 02:14:46;;;;;;;30.47;5.17;;;6.90;99.90;;;;;;5053111;28;20177;-71
2024/01/23 02:17:12;;;;;;;18.53;4.40;;;;;;;;;;5053248;28;20170;-71
2024/01/23 02:19:38;;;;;;;21.07;4.73;;;;;;;;;;5053218;28;20188;-71
2024/01/23 02:22:04;;;;;;;27.40;5.47;;;7.00;99.90;;;;;;5052892;28;20177;-74
2024/01/23 02:24:30;;;;;;;24.40;4.27;;;7.60;99.90;;;;;;5053057;28;20246;-71
2024/01/23 02:26:56;;;;;;;28.73;5.60;;;;;;;;;;5053059;28;20173;-72
2024/01/23 02:29:21;;;;;;;20.53;4.90;;;7.00;99.90;;;;;;5052766;28;20205;-72
2024/01/23 02:31:47;;;;;;;27.43;6.00;;;;;;;;;;5052968;28;20169;-71
2024/01/23 02:34:13;;;;;;;19.67;4.60;;;7.00;99.90;;;;;;5042237;28;20201;-72
2024/01/23 02:36:41;;;;;;;14.17;4.30;;;7.20;99.90;;;;;;5049344;28;20184;-72
2024/01/23 02:39:07;;;;;;;28.63;6.07;;;7.20;99.90;;;;;;5048992;28;20265;-71
2024/01/23 02:41:33;;;;;;;17.10;4.40;;;7.10;99.90;;;;;;5032791;28;20232;-72
2024/01/23 02:43:59;;;;;;;20.60;5.03;;;;;;;;;;5032640;28;20212;-71
2024/01/23 02:46:24;;;;;;;27.87;5.37;;;6.90;99.90;;;;;;5032657;28;20174;-71
2024/01/23 02:48:50;;;;;;;23.77;5.70;;;;;;;;;;5032363;28;20801;-72
2024/01/23 02:51:20;;;;;;;20.80;4.87;;;7.20;99.90;;;;;;5036361;28;20310;-73
2024/01/23 02:53:46;;;;;;;11.63;4.00;;;;;;;;;;5052124;28;20170;-72
2024/01/23 02:56:12;;;;;;;21.20;4.73;;;7.30;99.90;;;;;;5034473;28;20165;-72
2024/01/23 02:58:40;;;;;;;22.03;5.10;;;7.30;99.90;;;;;;5051465;28;20577;-72
2024/01/23 03:01:06;;;;;;;21.07;4.97;;;7.20;99.90;;;;;;5051853;28;20215;-73
2024/01/23 03:03:32;;;;;;;19.53;5.00;;;;;;;;;;5051729;28;20322;-72
2024/01/23 03:05:57;;;;;;;21.60;5.33;;;7.20;99.90;;;;;;5052011;28;20173;-73
2024/01/23 03:08:23;;;;;;;19.87;4.67;;;;;;;;;;5051874;28;20540;-71
2024/01/23 03:10:49;;;;;;;20.37;5.10;;;6.90;99.90;;;;;;5051974;28;20182;-73
2024/01/23 03:13:15;;;;;;;25.87;5.23;;;7.10;99.90;;;;;;5051816;28;20231;-73
2024/01/23 03:15:41;;;;;;;29.17;5.50;;;7.00;99.90;;;;;;5052037;28;20173;-71
2024/01/23 03:18:07;;;;;;;26.40;4.83;;;7.30;99.90;;;;;;5051848;28;20171;-72
2024/01/23 03:20:33;;;;;;;28.03;5.83;;;7.20;99.90;;;;;;5052042;28;20165;-71
2024/01/23 03:23:00;;;;;;;20.50;4.97;;;6.90;99.90;;;;;;5051962;28;20172;-72
2024/01/23 03:25:26;;;;;;;29.40;5.33;;;6.90;99.90;;;;;;5051626;28;20256;-71
2024/01/23 03:27:52;;;;;;;29.77;5.23;;;6.90;99.90;;;;;;5051723;28;20632;-72
2024/01/23 03:30:31;;;;;;;27.17;5.43;;;7.00;99.90;;;;;;5051728;28;20212;-71
2024/01/23 03:32:58;;;;;;;27.67;5.50;;;6.60;99.90;;;;;;5051687;28;20193;-71
2024/01/23 03:35:24;;;;;;;25.17;5.90;;;6.90;99.90;;;;;;5033486;28;20181;-71
2024/01/23 03:37:51;;;;;;;24.33;5.17;;;6.60;99.90;;;;;;5051753;28;20181;-71
2024/01/23 03:40:17;;;;;;;27.67;5.57;;;6.50;99.90;;;;;;5051630;28;20177;-71
2024/01/23 03:42:43;;;;;;;26.27;5.47;;;6.30;99.90;;;;;;5051547;28;20180;-71
2024/01/23 03:45:08;;;;;;;26.23;5.50;;;6.50;99.90;;;;;;5051333;28;20181;-71
2024/01/23 03:47:35;;;;;;;28.93;5.23;;;6.30;99.90;;;;;;5051439;28;20294;-71
2024/01/23 03:50:01;;;;;;;23.33;5.43;;;;;;;;;;5051332;28;20671;-71
2024/01/23 03:52:28;;;;;;;35.60;5.57;;;;;;;;;;5051362;28;20170;-72
2024/01/23 03:54:53;;;;;;;22.17;5.27;;;6.40;99.90;;;;;;5051419;28;20612;-72
2024/01/23 03:57:19;;;;;;;25.17;5.07;;;;;;;;;;5050553;28;20651;-71
2024/01/23 03:59:46;;;;;;;20.03;4.77;;;6.40;99.90;;;;;;5050448;28;20262;-72
2024/01/23 04:02:12;;;;;;;20.33;4.97;;;6.60;99.90;;;;;;5050644;28;20208;-72
2024/01/23 04:04:41;;;;;;;20.13;4.57;;;6.40;99.90;;;;;;5051170;28;20177;-72
2024/01/23 04:07:07;;;;;;;24.77;5.00;;;6.60;99.90;;;;;;5049926;28;20177;-72
2024/01/23 04:09:32;;;;;;;26.80;4.63;;;6.50;99.90;;;;;;5050951;28;20220;-72
2024/01/23 04:11:58;;;;;;;21.83;5.23;;;6.30;99.90;;;;;;5050837;28;20177;-72
2024/01/23 04:14:24;;;;;;;15.03;4.57;;;6.50;99.90;;;;;;5050753;28;20662;-72
2024/01/23 04:16:49;;;;;;;14.43;4.50;;;6.70;99.90;;;;;;5051073;28;20177;-72
2024/01/23 04:19:15;;;;;;;18.47;5.17;;;6.40;99.90;;;;;;5050879;28;20579;-71
2024/01/23 04:21:41;;;;;;;21.83;5.17;;;;;;;;;;5050633;28;20181;-71
2024/01/23 04:24:07;;;;;;;27.33;5.63;;;6.70;99.90;;;;;;5050810;28;20260;-72
2024/01/23 04:26:33;;;;;;;25.53;5.00;;;;;;;;;;5050831;28;20584;-71
2024/01/23 04:28:59;;;;;;;21.43;4.97;;;;;;;;;;5050332;28;20209;-72
2024/01/23 04:31:25;;;;;;;19.50;5.17;;;6.60;99.90;;;;;;5050941;28;20169;-72
2024/01/23 04:33:52;;;;;;;25.37;5.43;;;6.60;99.90;;;;;;5050919;28;20201;-72
2024/01/23 04:36:19;;;;;;;24.37;4.90;;;;;;;;;;5050854;28;20636;-71
2024/01/23 04:38:45;;;;;;;20.50;4.97;;;;;;;;;;5032371;28;20219;-72
2024/01/23 04:41:11;;;;;;;17.80;4.80;;;;;;;;;;5050722;28;20638;-71
2024/01/23 04:43:37;;;;;;;23.40;4.90;;;6.90;99.90;;;;;;5050860;28;20234;-71
2024/01/23 04:46:03;;;;;;;20.87;4.97;;;7.10;99.90;;;;;;5050571;28;20288;-72
2024/01/23 04:48:29;;;;;;;18.10;4.77;;;;;;;;;;5044685;28;20177;-71
2024/01/23 04:50:55;;;;;;;15.97;4.10;;;;;;;;;;5046838;28;20180;-71
2024/01/23 04:53:22;;;;;;;19.50;5.20;;;;;;;;;;5041899;28;20182;-71
2024/01/23 04:55:49;;;;;;;24.43;5.20;;;;;;;;;;5050407;28;20173;-71
2024/01/23 04:58:14;;;;;;;22.13;4.53;;;6.80;99.90;;;;;;5032935;28;20275;-71
2024/01/23 05:00:40;;;;;;;21.73;4.77;;;7.30;99.90;;;;;;5050433;28;20162;-72
2024/01/23 05:03:06;;;;;;;31.17;5.70;;;;;;;;;;5032279;28;20221;-72
2024/01/23 05:05:32;;;;;;;19.00;4.57;;;;;;;;;;5050495;28;20173;-72
2024/01/23 05:07:58;;;;;;;18.33;4.60;;;7.10;99.90;;;;;;5050412;28;20268;-72
2024/01/23 05:10:24;;;;;;;21.90;5.13;;;7.10;99.90;;;;;;5050432;28;20292;-72
2024/01/23 05:12:50;;;;;;;26.27;5.10;;;;;;;;;;5050332;28;20207;-72
2024/01/23 05:15:15;;;;;;;24.27;5.33;;;7.10;99.90;;;;;;5050652;28;20177;-72
2024/01/23 05:17:41;;;;;;;23.03;5.17;;;;;;;;;;5051901;28;20173;-72
2024/01/23 05:20:08;;;;;;;24.43;5.00;;;7.20;99.90;;;;;;5054007;28;20683;-72
2024/01/23 05:22:34;;;;;;;20.43;4.70;;;6.90;99.90;;;;;;5054164;28;20177;-72
2024/01/23 05:25:00;;;;;;;25.10;5.30;;;;;;;;;;5054051;28;20220;-72
2024/01/23 05:27:26;;;;;;;17.83;5.03;;;7.40;99.90;;;;;;5054014;28;20205;-72
2024/01/23 05:29:52;;;;;;;24.23;5.17;;;;;;;;;;5035694;28;20303;-72
2024/01/23 05:32:18;;;;;;;19.23;4.80;;;;;;;;;;5036006;28;20181;-72
2024/01/23 05:34:44;;;;;;;19.80;4.90;;;7.50;99.90;;;;;;5053959;28;20177;-72
2024/01/23 05:37:12;;;;;;;16.20;4.53;;;7.40;99.90;;;;;;5053898;28;20228;-72
2024/01/23 05:39:38;;;;;;;19.37;4.70;;;7.90;99.90;;;;;;5019462;28;20735;-72
2024/01/23 05:42:05;;;;;;;23.13;4.90;;;7.60;99.90;;;;;;5053641;28;20222;-72
2024/01/23 05:44:32;;;;;;;16.27;4.57;;;;;;;;;;5053888;28;20181;-72
2024/01/23 05:46:57;;;;;;;22.57;4.87;;;7.20;99.90;;;;;;5053473;28;20211;-72
2024/01/23 05:49:24;;;;;;;24.73;5.03;;;;;;;;;;5053490;28;20243;-71
2024/01/23 05:51:50;;;;;;;20.00;4.90;;;;;;;;;;5053570;28;20264;-71
2024/01/23 05:54:16;;;;;;;22.33;5.13;;;;;;;;;;5053300;28;20645;-71
2024/01/23 05:56:42;;;;;;;20.90;5.50;;;;;;;;;;5053343;28;20640;-71
2024/01/23 05:59:07;;;;;;;24.27;5.37;;;7.70;99.90;;;;;;5053588;28;20174;-71
2024/01/23 06:01:34;;;;;;;18.40;5.10;;;;;;;;;;5053404;28;20177;-71
2024/01/23 06:04:00;;;;;;;26.80;6.00;;;8.10;99.90;;;;;;5052732;28;20219;-71
2024/01/23 06:06:26;;;;;;;22.23;5.33;;;7.90;99.90;;;;;;5053282;28;20177;-71
2024/01/23 06:08:51;;;;;;;24.20;5.23;;;7.90;99.90;;;;;;5052757;28;20205;-71
2024/01/23 06:11:17;;;;;;;25.77;5.33;;;7.80;99.90;;;;;;5052894;28;20674;-71
2024/01/23 06:13:43;;;;;;;29.00;5.93;;;7.90;99.90;;;;;;5052997;28;20169;-71
2024/01/23 06:16:10;;;;;;;10.67;4.17;;;;;;;;;;5038955;28;20174;-71
2024/01/23 06:18:35;;;;;;;16.53;4.77;;;7.40;99.90;;;;;;5048108;28;20640;-71
2024/01/23 06:21:02;;;;;;;21.63;5.07;;;7.60;99.90;;;;;;5052795;28;20183;-71
2024/01/23 06:23:28;;;;;;;20.07;5.20;;;7.40;99.90;;;;;;5034814;28;20185;-71
2024/01/23 06:25:54;;;;;;;20.07;4.90;;;7.50;99.90;;;;;;5053038;28;20265;-72
2024/01/23 06:28:20;;;;;;;20.33;5.07;;;;;;;;;;5052635;28;20169;-71
2024/01/23 06:30:47;;;;;;;17.80;4.83;;;7.60;99.90;;;;;;5052222;28;20177;-71
2024/01/23 06:33:13;;;;;;;17.93;4.40;;;7.50;99.90;;;;;;5052886;28;20260;-73
2024/01/23 06:35:39;;;;;;;20.03;4.77;;;;;;;;;;5052677;28;20239;-71
2024/01/23 06:38:05;;;;;;;24.40;5.10;;;7.50;99.90;;;;;;5052504;28;20192;-72
2024/01/23 06:40:31;;;;;;;16.33;4.50;;;;;;;;;;5052653;28;20252;-73
2024/01/23 06:42:56;;;;;;;15.53;4.37;;;7.70;99.90;;;;;;5052524;28;20805;-72
2024/01/23 06:45:22;;;;;;;15.27;4.63;;;7.50;99.90;;;;;;5052466;28;20168;-71
2024/01/23 06:47:48;;;;;;;15.23;4.13;;;7.40;99.90;;;;;;5052462;28;20193;-71
2024/01/23 06:50:14;;;;;;;15.90;4.10;;;;;;;;;;5052327;28;20197;-71
2024/01/23 06:52:40;;;;;;;18.37;4.57;;;7.30;99.90;;;;;;5052014;28;20177;-71
2024/01/23 06:55:06;;;;;;;19.70;4.50;;;;;;;;;;5052319;28;20234;-72
2024/01/23 06:57:31;;;;;;;18.37;4.93;;;7.60;99.90;;;;;;5051991;28;20173;-71
2024/01/23 06:59:57;;;;;;;18.47;4.73;;;;;;;;;;5052145;28;20594;-71
2024/01/23 07:02:23;;;;;;;13.67;4.20;;;7.80;99.90;;;;;;5052049;28;20809;-71
2024/01/23 07:04:49;;;;;;;18.47;4.67;;;7.70;99.90;;;;;;5052224;28;20248;-72
2024/01/23 07:07:14;;;;;;;17.00;3.93;;;7.70;99.90;;;;;;5051881;28;20173;-72
2024/01/23 07:09:40;;;;;;;14.10;4.00;;;8.00;99.90;;;;;;5052053;28;20295;-72
2024/01/23 07:12:06;;;;;;;10.13;3.13;;;;;;;;;;5051940;28;20650;-71
2024/01/23 07:14:32;;;;;;;11.07;3.50;;;;;;;;;;5051663;28;20185;-71
2024/01/23 07:16:58;;;;;;;9.40;2.80;;;7.80;99.90;;;;;;5051434;28;20244;-72
2024/01/23 07:19:23;;;;;;;11.70;3.67;;;7.90;99.90;;;;;;5033908;28;20275;-72
2024/01/23 07:21:49;;;;;;;12.43;3.33;;;;;;;;;;5051401;28;20224;-71
2024/01/23 07:24:17;;;;;;;13.67;3.60;;;;;;;;;;5051822;28;20256;-71
2024/01/23 07:26:43;;;;;;;15.10;3.73;;;;;;;;;;5051917;28;20177;-72
2024/01/23 07:29:09;;;;;;;14.67;3.40;;;;;;;;;;5051524;28;20297;-71
2024/01/23 07:31:35;;;;;;;10.83;3.03;;;;;;;;;;5050942;28;20266;-70
2024/01/23 07:34:01;;;;;;;11.57;3.13;;;7.70;99.90;;;;;;5051141;28;20256;-70
2024/01/23 07:36:27;;;;;;;8.40;3.00;;;7.80;99.90;;;;;;5050910;28;20252;-71
2024/01/23 07:38:52;;;;;;;7.63;2.43;;;8.00;99.90;;;;;;5051653;28;20223;-72
2024/01/23 07:41:18;;;;;;;10.87;3.03;;;;;;;;;;5051742;28;20232;-71
2024/01/23 07:43:44;;;;;;;7.40;2.50;;;8.10;99.90;;;;;;5051626;28;20660;-72
2024/01/23 07:46:12;;;;;;;7.97;2.40;;;7.80;99.90;;;;;;5033793;28;20215;-70
2024/01/23 07:48:38;;;;;;;8.00;2.33;;;8.00;99.90;;;;;;5050309;28;20260;-71
2024/01/23 07:51:04;;;;;;;6.10;2.17;;;8.00;99.90;;;;;;5051133;28;20260;-71
2024/01/23 07:53:32;;;;;;;6.80;1.70;;;;;;;;;;5050243;28;20207;-71
2024/01/23 07:55:57;;;;;;;7.40;2.00;;;7.90;99.90;;;;;;5050109;28;20204;-72
2024/01/23 07:58:23;;;;;;;6.30;1.77;;;8.50;99.90;;;;;;5050498;28;20212;-71
2024/01/23 08:00:49;;;;;;;5.47;1.70;;;;;;;;;;5051063;28;20191;-71
2024/01/23 08:03:15;;;;;;;7.93;1.90;;;;;;;;;;5050428;28;20625;-72
2024/01/23 08:05:41;;;;;;;7.90;2.20;;;;;;;;;;5049886;28;20253;-72
2024/01/23 08:08:07;;;;;;;5.57;1.90;;;8.10;99.90;;;;;;5047271;28;20174;-72
2024/01/23 08:10:34;;;;;;;4.33;1.23;;;8.10;99.90;;;;;;5049198;28;20714;-73
2024/01/23 08:13:00;;;;;;;6.20;1.83;;;8.40;99.90;;;;;;5054201;28;20657;-72
2024/01/23 08:15:25;;;;;;;4.53;1.40;;;8.00;99.90;;;;;;5050572;28;20216;-72
2024/01/23 08:17:51;;;;;;;4.73;1.37;;;8.00;99.90;;;;;;5050975;28;20656;-72
2024/01/23 08:20:18;;;;;;;4.47;1.40;;;8.30;99.90;;;;;;5032914;28;20651;-73
2024/01/23 08:22:44;;;;;;;4.97;1.50;;;8.30;99.90;;;;;;5032993;28;20177;-70
2024/01/23 08:25:09;;;;;;;2.80;1.00;;;8.40;99.90;;;;;;5058911;28;20295;-71
2024/01/23 08:27:35;;;;;;;3.57;1.13;;;8.60;99.90;;;;;;5050616;28;20256;-71
2024/01/23 08:30:01;;;;;;;5.30;1.23;;;8.50;99.90;;;;;;5049971;28;20216;-71
2024/01/23 08:32:27;;;;;;;1.80;0.53;;;8.40;99.90;;;;;;5050547;28;20340;-71
2024/01/23 08:34:53;;;;;;;3.20;0.77;;;;;;;;;;5050712;28;20177;-71
2024/01/23 08:37:19;;;;;;;3.03;0.70;;;;;;;;;;5050823;28;20200;-71
2024/01/23 08:39:45;;;;;;;2.17;0.70;;;8.80;99.90;;;;;;5050833;28;20643;-71
2024/01/23 08:42:10;;;;;;;3.37;0.90;;;8.70;99.90;;;;;;5032851;28;20173;-70
2024/01/23 08:44:36;;;;;;;2.83;0.73;;;9.20;99.90;;;;;;5050655;28;20260;-71
2024/01/23 08:47:03;;;;;;;2.37;0.73;;;9.20;99.90;;;;;;5050671;28;20177;-72
2024/01/23 08:49:29;;;;;;;3.73;1.10;;;;;;;;;;5031311;28;20267;-72
2024/01/23 08:51:55;;;;;;;2.80;0.87;;;;;;;;;;5051133;28;20247;-72
2024/01/23 08:54:21;;;;;;;1.87;0.63;;;9.00;99.90;;;;;;5036522;28;20177;-72
2024/01/23 08:56:47;;;;;;;2.10;0.60;;;9.20;99.90;;;;;;5053125;28;20172;-72
2024/01/23 08:59:15;;;;;;;2.30;0.77;;;9.40;99.90;;;;;;5054493;28;20205;-72
2024/01/23 09:01:42;;;;;;;1.67;0.80;;;;;;;;;;5063041;28;20563;-72
2024/01/23 09:04:08;;;;;;;2.10;0.67;;;9.50;99.90;;;;;;5054296;28;20216;-73
2024/01/23 09:06:33;;;;;;;3.23;0.73;;;9.40;99.90;;;;;;5054543;28;20508;-73
2024/01/23 09:08:59;;;;;;;2.70;0.80;;;;;;;;;;5054234;28;20299;-73
2024/01/23 09:11:25;;;;;;;1.37;0.50;;;;;;;;;;5054223;28;20181;-72
2024/01/23 09:13:51;;;;;;;2.73;0.63;;;9.40;99.90;;;;;;5054005;28;20165;-71
2024/01/23 09:16:17;;;;;;;1.57;0.60;;;9.70;99.90;;;;;;5054131;28;20169;-72
2024/01/23 09:18:48;;;;;;;1.47;0.43;;;;;;;;;;5053701;28;20298;-73
2024/01/23 09:21:14;;;;;;;4.30;0.97;;;;;;;;;;5054087;28;20173;-73
2024/01/23 09:23:40;;;;;;;2.63;0.70;;;;;;;;;;5048873;28;20260;-71
2024/01/23 09:26:06;;;;;;;2.87;0.80;;;9.80;99.90;;;;;;5052996;28;20185;-73
2024/01/23 09:28:32;;;;;;;3.17;0.80;;;;;;;;;;5053658;28;20177;-74
2024/01/23 09:30:58;;;;;;;3.73;0.90;;;;;;;;;;5049054;28;20182;-73
2024/01/23 09:33:23;;;;;;;3.07;0.70;;;9.70;99.90;;;;;;5048613;28;20248;-73
2024/01/23 09:35:49;;;;;;;2.13;0.80;;;9.80;99.90;;;;;;5053692;28;20256;-73
2024/01/23 09:38:15;;;;;;;3.33;1.13;;;;;;;;;;5035871;28;20197;-72
2024/01/23 09:40:42;;;;;;;5.00;1.23;;;9.80;99.90;;;;;;5052242;28;20223;-74
2024/01/23 09:43:11;;;;;;;3.37;0.90;;;9.80;99.90;;;;;;5053149;28;20185;-73
2024/01/23 09:45:40;;;;;;;2.87;1.00;;;9.80;99.90;;;;;;5053704;28;20169;-73
2024/01/23 09:48:06;;;;;;;3.43;0.80;;;10.10;99.90;;;;;;5053896;28;20177;-74
2024/01/23 09:50:35;;;;;;;2.27;0.50;;;9.90;99.90;;;;;;5052996;28;20212;-73
2024/01/23 09:53:03;;;;;;;5.30;1.67;;;10.00;99.90;;;;;;5053718;28;20176;-74
2024/01/23 09:55:30;;;;;;;3.27;0.97;;;;;;;;;;5035519;28;20180;-76
2024/01/23 09:57:56;;;;;;;2.43;0.93;;;9.90;99.90;;;;;;5053129;28;20188;-74
2024/01/23 10:00:23;;;;;;;2.73;0.70;;;9.70;99.90;;;;;;5053187;28;20201;-74
2024/01/23 10:02:48;;;;;;;2.43;0.90;;;9.90;99.90;;;;;;5065923;28;20590;-74
2024/01/23 10:05:17;;;;;;;2.07;0.67;;;10.10;99.90;;;;;;5052137;28;20173;-75
2024/01/23 10:07:44;;;;;;;0.80;0.30;;;;;;;;;;5052660;28;20182;-74
2024/01/23 10:10:16;;;;;;;3.37;0.87;;;10.10;99.90;;;;;;5051961;28;20271;-75
2024/01/23 10:12:46;;;;;;;3.43;1.00;;;10.20;99.90;;;;;;5053134;28;20215;-74
2024/01/23 10:15:22;;;;;;;4.50;0.97;;;10.30;99.90;;;;;;5052054;28;20268;-72
2024/01/23 10:17:49;;;;;;;2.93;0.90;;;10.30;99.90;;;;;;5052709;28;20177;-73
2024/01/23 10:20:15;;;;;;;0.87;0.30;;;10.20;99.90;;;;;;5053096;28;20174;-74
2024/01/23 10:22:43;;;;;;;1.70;0.40;;;10.60;99.90;;;;;;5052745;28;20175;-74
2024/01/23 10:25:15;;;;;;;2.60;0.77;;;10.80;99.90;;;;;;5052893;28;20165;-72
2024/01/23 10:27:40;;;;;;;0.77;0.30;;;10.30;99.90;;;;;;5052746;28;20724;-72
2024/01/23 10:30:08;;;;;;;1.10;0.43;;;10.90;99.90;;;;;;5051861;28;20295;-72
2024/01/23 10:32:36;;;;;;;2.07;0.60;;;10.80;99.90;;;;;;5052815;28;20176;-72
2024/01/23 10:35:03;;;;;;;1.00;0.40;;;11.20;99.90;;;;;;5052889;28;20170;-72
2024/01/23 10:37:29;;;;;;;1.57;0.60;;;11.00;99.90;;;;;;5052802;28;20627;-72
2024/01/23 10:39:55;;;;;;;1.37;0.40;;;;;;;;;;5052614;28;20196;-73
2024/01/23 10:42:21;;;;;;;1.17;0.50;;;11.10;99.90;;;;;;5034563;28;20174;-74
2024/01/23 10:44:50;;;;;;;1.17;0.40;;;11.00;99.90;;;;;;5052706;28;20173;-73
2024/01/23 10:47:19;;;;;;;1.50;0.53;;;11.00;99.90;;;;;;5047926;28;20176;-74
2024/01/23 10:49:46;;;;;;;0.43;0.20;;;11.20;99.90;;;;;;5048759;28;20220;-74
2024/01/23 10:52:18;;;;;;;0.80;0.47;;;11.20;99.90;;;;;;5052141;28;20184;-74
2024/01/23 10:54:46;;;;;;;1.17;0.37;;;11.30;99.90;;;;;;5052557;28;20196;-73
2024/01/23 10:57:22;;;;;;;1.73;0.60;;;11.50;99.90;;;;;;5052512;28;20653;-75
2024/01/23 10:59:48;;;;;;;1.00;0.47;;;11.40;99.90;;;;;;5035468;28;20161;-75
2024/01/23 11:02:19;;;;;;;0.90;0.30;;;11.50;99.90;;;;;;5051511;28;20212;-74
2024/01/23 11:04:45;;;;;;;2.00;0.70;;;11.40;99.90;;;;;;5031354;28;20280;-73
2024/01/23 11:07:53;;;;;;;1.77;0.70;;;11.80;99.90;;;;;;5034985;28;20264;-75
2024/01/23 11:10:42;;;;;;;1.00;0.50;;;11.80;99.90;;;;;;4953829;28;20215;-74
2024/01/23 11:13:29;;;;;;;1.13;0.50;;;11.90;99.90;;;;;;4962174;28;20176;-75
2024/01/23 11:15:54;;;;;;;0.33;0.30;;;12.00;99.90;;;;;;5034251;28;20268;-74
2024/01/23 11:18:28;;;;;;;0.87;0.40;;;11.90;99.90;;;;;;5051804;28;20256;-74
2024/01/23 11:21:09;;;;;;;1.30;0.47;;;12.10;99.90;;;;;;5049789;28;20197;-74
2024/01/23 11:23:36;;;;;;;0.70;0.40;;;11.90;99.90;;;;;;5049165;28;20239;-75
2024/01/23 11:26:22;;;;;;;0.80;0.50;;;12.10;99.90;;;;;;5063906;28;20180;-74
2024/01/23 11:28:58;;;;;;;1.43;0.70;;;12.20;99.90;;;;;;5071821;28;20179;-74
2024/01/23 11:31:26;;;;;;;0.57;0.50;;;11.90;99.90;;;;;;5071641;28;20176;-75
2024/01/23 11:33:53;;;;;;;1.30;0.67;;;12.20;99.90;;;;;;5071552;28;20176;-74
2024/01/23 11:36:23;;;;;;;1.40;0.50;;;12.00;99.90;;;;;;5071535;28;20181;-74
2024/01/23 11:38:50;;;;;;;0.77;0.50;;;12.30;99.90;;;;;;5050018;28;20178;-75
2024/01/23 11:41:24;;;;;;;0.97;0.60;;;11.70;99.90;;;;;;5049706;28;20667;-74
2024/01/23 11:43:52;;;;;;;0.50;0.37;;;11.90;99.90;;;;;;5050264;28;20171;-76
2024/01/23 11:46:25;;;;;;;0.60;0.30;;;11.90;99.90;;;;;;5046553;28;20173;-74
2024/01/23 11:48:53;;;;;;;0.43;0.30;;;11.70;99.90;;;;;;5031380;28;20729;-76
2024/01/23 11:51:19;;;;;;;0.70;0.30;;;;;;;;;;5049555;28;20185;-76
2024/01/23 11:53:45;;;;;;;0.97;0.27;;;11.10;99.90;;;;;;5045849;28;20291;-75
2024/01/23 11:56:12;;;;;;;0.63;0.30;;;11.80;99.90;;;;;;5039783;28;20572;-75
2024/01/23 11:58:38;;;;;;;0.70;0.40;;;11.70;99.90;;;;;;5050630;28;20216;-75
2024/01/23 12:01:05;;;;;;;0.70;0.30;;;11.70;99.90;;;;;;5052876;28;20235;-75
2024/01/23 12:03:31;;;;;;;0.20;0.10;;;12.10;99.90;;;;;;5050623;28;20224;-75
2024/01/23 12:05:57;;;;;;;0.50;0.17;;;12.00;99.90;;;;;;5038325;28;20177;-76
2024/01/23 12:08:23;;;;;;;1.50;0.43;;;11.90;99.90;;;;;;5031132;28;20170;-75
2024/01/23 12:10:50;;;;;;;0.30;0.03;;;11.80;99.90;;;;;;5033228;28;20304;-74
2024/01/23 12:13:16;;;;;;;0.73;0.17;;;;;;;;;;5059796;28;20227;-75
2024/01/23 12:15:41;;;;;;;0.47;0.10;;;12.00;99.90;;;;;;5031017;28;20189;-75
2024/01/23 12:18:13;;;;;;;0.30;0.10;;;12.00;99.90;;;;;;5044694;28;20181;-75
2024/01/23 12:20:42;;;;;;;0.60;0.20;;;12.10;99.90;;;;;;5032284;28;20181;-75
2024/01/23 12:23:08;;;;;;;0.50;0.20;;;12.10;99.90;;;;;;5050552;28;20231;-75
2024/01/23 12:25:34;;;;;;;0.10;0.00;;;12.00;99.90;;;;;;5050925;28;20188;-75
2024/01/23 12:28:00;;;;;;;0.37;0.10;;;;;;;;;;5049299;28;20181;-76
2024/01/23 12:30:26;;;;;;;0.50;0.23;;;;;;;;;;5050418;28;20213;-77
2024/01/23 12:32:52;;;;;;;0.10;0.00;;;12.20;99.90;;;;;;5032260;28;20179;-75
2024/01/23 12:35:17;;;;;;;0.40;0.00;;;12.00;99.90;;;;;;5051103;28;20181;-74
2024/01/23 12:37:43;;;;;;;0.10;0.03;;;;;;;;;;5050636;28;20670;-75
2024/01/23 12:40:12;;;;;;;0.63;0.10;;;12.20;99.90;;;;;;5050881;28;20173;-75
2024/01/23 12:42:43;;;;;;;0.10;0.00;;;12.40;99.90;;;;;;5050527;28;20196;-73
2024/01/23 12:45:16;;;;;;;0.20;0.10;;;12.30;99.90;;;;;;5050375;28;20177;-73
2024/01/23 12:47:46;;;;;;;0.23;0.10;;;12.50;99.90;;;;;;5050784;28;20161;-75
2024/01/23 12:50:22;;;;;;;0.07;0.00;;;12.50;99.90;;;;;;5049343;28;20610;-73
2024/01/23 12:52:50;;;;;;;0.17;0.00;;;12.80;99.90;;;;;;5046949;28;20192;-73
2024/01/23 12:55:16;;;;;;;0.20;0.10;;;12.70;99.90;;;;;;5046861;28;20181;-73
2024/01/23 12:57:44;;;;;;;0.07;0.00;;;12.70;99.90;;;;;;5050082;28;20248;-72
2024/01/23 13:00:11;;;;;;;0.20;0.10;;;12.70;99.90;;;;;;5052560;28;20222;-74
2024/01/23 13:02:37;;;;;;;0.10;0.07;;;12.50;99.90;;;;;;5056261;28;20210;-72
2024/01/23 13:05:03;;;;;;;0.30;0.13;;;;;;;;;;5050565;28;20177;-73
2024/01/23 13:07:28;;;;;;;0.20;0.10;;;12.60;99.90;;;;;;5050450;28;20177;-72
2024/01/23 13:09:56;;;;;;;0.30;0.00;;;12.60;99.90;;;;;;5050072;28;20237;-73
2024/01/23 13:12:22;;;;;;;0.00;0.00;;;;;;;;;;5049006;28;20172;-72